GMFK

Details ICAO GMFK (ERH)
Name MOULAY ALI CHERIF
Region Morocco
Timezone Africa/Casablanca (UTC+0.0)
Plans Departing 9
Arriving 11
Stats Elevation 3,428 ft / 1,045 m (AMSL)
Location 31.948252° -4.400956°
Runways 1
Magnetic Variation 0.923° W
Sunrise 2017-12-17 07:13:10 UTC / 2017-12-17 07:13:10 Local
Sunset 2017-12-17 17:17:01 UTC / 2017-12-17 17:17:01 Local
Advertisement - Login to hide

Runways

ID Width Length Bearing (true) Bearing (mag) Surface Threshold Offset Overrun Length
13 148 ft / 45 m 10,576 ft / 3,224 m 125.08° 126.00° Asphalt 0 ft / 0 m 0 ft / 0 m
31 148 ft / 45 m 10,576 ft / 3,224 m 305.10° 306.02° Asphalt 0 ft / 0 m 0 ft / 0 m

Map

Weather


0- 5 10 15 20 25 30 35+ Temperature / ° C

Clouds and Precipitation
Forecast for 2017-12-18 00:00 UTC. Updated 10 minutes ago

Ground ~20,000 ft ~40,000 ft Winds

METAR

GMFK 171900Z 11007KT 9999 SCT030 SCT080 11/04 Q1026 NOSIG

TAF

Not found

Frequencies

Tower 122.70 MHz ERRACHIDIA TWR
Warning: Do not use this data for real-world aviation or navigation. No guarantee of current accuracy is given.